Time;durP1;ratioP1;P1;durP2;ratioP2;P2;SDS_P1;SDS_P2;PMS_P1;PMS_P2;Temp;Humidity;BMP_temperature;BMP_pressure;BME280_temperature;BME280_humidity;BME280_pressure;Samples;Min_cycle;Max_cycle;Signal;HPM_P1;HPM_P2
2023/12/14 00:02:10;;;;;;;0.20;0.20;;;;;;;;;;5008137;28;20086;-79
2023/12/14 00:04:36;;;;;;;0.20;0.20;;;;;;;;;;5007007;28;20580;-79
2023/12/14 00:07:03;;;;;;;0.10;0.10;;;;;;;;;;5008051;28;20210;-78
2023/12/14 00:09:29;;;;;;;0.10;0.10;;;;;;;;;;5014973;28;20058;-80
2023/12/14 00:11:55;;;;;;;0.10;0.10;;;;;;;;;;4993473;28;20062;-79
2023/12/14 00:14:22;;;;;;;0.10;0.10;;;;;;;;;;5009177;28;21017;-79
2023/12/14 00:16:49;;;;;;;0.93;0.57;;;;;;;;;;5009828;28;20063;-80
2023/12/14 00:19:15;;;;;;;0.10;0.10;;;;;;;;;;4994390;28;20070;-79
2023/12/14 00:21:42;;;;;;;0.10;0.10;;;;;;;;;;4992655;28;20069;-79
2023/12/14 00:24:08;;;;;;;0.30;0.30;;;;;;;;;;5008492;28;20051;-80
2023/12/14 00:26:35;;;;;;;0.10;0.10;;;;;;;;;;5012074;28;20137;-79
2023/12/14 00:29:01;;;;;;;0.10;0.10;;;;;;;;;;4991021;28;20492;-79
2023/12/14 00:31:31;;;;;;;0.10;0.10;;;;;;;;;;5011220;28;20058;-79
2023/12/14 00:33:57;;;;;;;0.65;0.65;;;;;;;;;;5011378;28;20054;-79
2023/12/14 00:36:24;;;;;;;0.10;0.10;;;;;;;;;;5010349;28;20149;-79
2023/12/14 00:38:50;;;;;;;0.10;0.10;;;;;;;;;;4995678;28;20058;-80
2023/12/14 00:41:17;;;;;;;0.20;0.20;;;;;;;;;;5013547;28;20057;-79
2023/12/14 00:43:43;;;;;;;0.28;0.28;;;;;;;;;;5017421;28;20072;-79
2023/12/14 00:46:11;;;;;;;0.50;0.50;;;;;;;;;;4991230;28;20050;-79
2023/12/14 00:48:37;;;;;;;0.10;0.10;;;;;;;;;;5006490;28;20054;-79
2023/12/14 00:51:04;;;;;;;0.32;0.32;;;;;;;;;;4995691;28;20589;-80
2023/12/14 00:53:30;;;;;;;0.22;0.22;;;;;;;;;;5011694;28;20062;-79
2023/12/14 00:55:57;;;;;;;0.20;0.20;;;;;;;;;;5012602;28;20065;-80
2023/12/14 00:58:24;;;;;;;0.10;0.10;;;;;;;;;;5008656;28;20064;-79
2023/12/14 01:00:50;;;;;;;0.10;0.10;;;;;;;;;;5010736;28;20046;-79
2023/12/14 01:03:17;;;;;;;0.28;0.28;;;;;;;;;;4995631;28;20058;-79
2023/12/14 01:05:43;;;;;;;0.10;0.10;;;;;;;;;;5001935;28;20058;-79
2023/12/14 01:08:10;;;;;;;0.73;0.73;;;;;;;;;;5012246;28;20051;-79
2023/12/14 01:10:37;;;;;;;0.10;0.10;;;;;;;;;;5008113;28;20133;-79
2023/12/14 01:13:03;;;;;;;0.40;0.40;;;;;;;;;;5015099;28;20054;-79
2023/12/14 01:15:30;;;;;;;0.15;0.15;;;;;;;;;;5013901;28;20047;-79
2023/12/14 01:17:56;;;;;;;0.10;0.10;;;;;;;;;;5013133;28;20077;-79
2023/12/14 01:20:23;;;;;;;0.10;0.10;;;;;;;;;;5010727;28;20062;-79
2023/12/14 01:22:49;;;;;;;0.10;0.10;;;;;;;;;;5005423;28;20054;-79
2023/12/14 01:25:16;;;;;;;0.20;0.20;;;;;;;;;;5010541;28;20133;-79
2023/12/14 01:27:42;;;;;;;0.20;0.20;;;;;;;;;;5000191;28;20078;-79
2023/12/14 01:30:09;;;;;;;0.20;0.20;;;;;;;;;;5012820;28;20998;-79
2023/12/14 01:32:36;;;;;;;0.10;0.10;;;;;;;;;;5012684;28;20058;-79
2023/12/14 01:35:03;;;;;;;0.20;0.20;;;;;;;;;;5011712;28;20046;-78
2023/12/14 01:37:30;;;;;;;0.38;0.38;;;;;;;;;;5012091;28;20430;-79
2023/12/14 01:39:57;;;;;;;0.30;0.30;;;;;;;;;;4999743;28;20054;-79
2023/12/14 01:42:23;;;;;;;0.10;0.10;;;;;;;;;;4992097;28;20102;-79
2023/12/14 01:44:49;;;;;;;0.28;0.28;;;;;;;;;;5009866;28;20134;-79
2023/12/14 01:47:17;;;;;;;0.10;0.10;;;;;;;;;;5009131;28;20088;-79
2023/12/14 01:49:43;;;;;;;0.10;0.10;;;;;;;;;;4994667;28;20116;-79
2023/12/14 01:52:10;;;;;;;0.10;0.10;;;;;;;;;;5009399;28;20060;-79
2023/12/14 01:54:36;;;;;;;0.10;0.10;;;;;;;;;;5009802;28;20093;-79
2023/12/14 01:57:03;;;;;;;1.40;1.05;;;;;;;;;;5010884;28;20109;-79
2023/12/14 01:59:29;;;;;;;0.10;0.10;;;;;;;;;;5010749;28;20073;-79
2023/12/14 02:01:56;;;;;;;0.40;0.40;;;;;;;;;;5010376;28;20058;-79
2023/12/14 02:04:25;;;;;;;0.10;0.10;;;;;;;;;;5009645;28;20058;-79
2023/12/14 02:06:51;;;;;;;0.10;0.10;;;;;;;;;;5004818;28;20046;-79
2023/12/14 02:09:17;;;;;;;0.35;0.35;;;;;;;;;;5007262;28;20969;-79
2023/12/14 02:11:44;;;;;;;0.10;0.10;;;;;;;;;;5010310;28;20047;-79
2023/12/14 02:14:11;;;;;;;0.20;0.20;;;;;;;;;;5011672;28;20055;-79
2023/12/14 02:16:40;;;;;;;0.10;0.10;;;;;;;;;;5011905;28;20081;-79
2023/12/14 02:19:07;;;;;;;0.10;0.10;;;;;;;;;;5011502;28;20086;-79
2023/12/14 02:21:33;;;;;;;0.10;0.10;;;;;;;;;;5005254;28;20200;-79
2023/12/14 02:24:00;;;;;;;0.10;0.10;;;;;;;;;;5015516;28;20060;-80
2023/12/14 02:26:26;;;;;;;0.10;0.10;;;;;;;;;;5011360;28;20054;-80
2023/12/14 02:28:53;;;;;;;0.10;0.10;;;;;;;;;;5009960;28;20528;-79
2023/12/14 02:31:20;;;;;;;0.10;0.10;;;;;;;;;;5012372;28;20062;-79
2023/12/14 02:33:46;;;;;;;0.10;0.10;;;;;;;;;;4993451;28;20077;-79
2023/12/14 02:36:13;;;;;;;0.10;0.10;;;;;;;;;;5009596;28;20054;-79
2023/12/14 02:38:39;;;;;;;0.10;0.10;;;;;;;;;;5011330;28;20058;-79
2023/12/14 02:41:06;;;;;;;0.10;0.10;;;;;;;;;;5000517;28;20054;-79
2023/12/14 02:43:33;;;;;;;0.50;0.50;;;;;;;;;;4998162;28;20082;-78
2023/12/14 02:46:02;;;;;;;0.30;0.30;;;;;;;;;;5010581;28;20058;-78
2023/12/14 02:48:32;;;;;;;0.10;0.10;;;;;;;;;;4997114;28;20050;-79
2023/12/14 02:51:00;;;;;;;1.17;1.13;;;;;;;;;;5019351;28;20113;-79
2023/12/14 02:53:26;;;;;;;0.10;0.10;;;;;;;;;;4999973;28;20054;-78
2023/12/14 02:55:53;;;;;;;0.10;0.10;;;;;;;;;;4991108;28;20116;-79
2023/12/14 02:58:20;;;;;;;0.20;0.20;;;;;;;;;;5005090;28;20042;-78
2023/12/14 03:00:46;;;;;;;0.90;0.50;;;;;;;;;;5008272;28;20089;-78
2023/12/14 03:03:13;;;;;;;0.10;0.10;;;;;;;;;;5007789;28;20107;-79
2023/12/14 03:05:39;;;;;;;2.38;0.65;;;;;;;;;;5007684;28;20085;-79
2023/12/14 03:08:05;;;;;;;0.10;0.10;;;;;;;;;;4997564;28;20113;-79
2023/12/14 03:10:32;;;;;;;0.10;0.10;;;;;;;;;;5008189;28;20054;-78
2023/12/14 03:12:58;;;;;;;0.10;0.10;;;;;;;;;;5005847;28;20110;-78
2023/12/14 03:15:25;;;;;;;0.10;0.10;;;;;;;;;;5005656;28;20066;-78
2023/12/14 03:17:51;;;;;;;0.20;0.20;;;;;;;;;;4997976;28;21066;-78
2023/12/14 03:20:18;;;;;;;0.10;0.10;;;;;;;;;;5008489;28;20981;-78
2023/12/14 03:22:44;;;;;;;0.10;0.10;;;;;;;;;;4990887;28;21852;-78
2023/12/14 03:25:11;;;;;;;0.10;0.10;;;;;;;;;;5004852;28;20058;-78
2023/12/14 03:27:37;;;;;;;0.20;0.20;;;;;;;;;;5006513;28;20061;-78
2023/12/14 03:30:07;;;;;;;0.10;0.10;;;;;;;;;;5007943;28;20074;-78
2023/12/14 03:32:34;;;;;;;0.10;0.10;;;;;;;;;;4993903;28;20157;-78
2023/12/14 03:35:01;;;;;;;0.10;0.10;;;;;;;;;;4991732;28;21073;-78
2023/12/14 03:37:28;;;;;;;0.28;0.28;;;;;;;;;;5006505;28;20066;-78
2023/12/14 03:39:54;;;;;;;0.15;0.15;;;;;;;;;;5007224;28;20065;-78
2023/12/14 03:42:21;;;;;;;0.10;0.10;;;;;;;;;;4995414;28;20509;-78
2023/12/14 03:44:47;;;;;;;0.35;0.35;;;;;;;;;;5001954;28;20070;-78
2023/12/14 03:47:14;;;;;;;0.15;0.15;;;;;;;;;;5003862;28;20084;-78
2023/12/14 03:49:40;;;;;;;0.10;0.10;;;;;;;;;;5009812;28;20065;-78
2023/12/14 03:52:08;;;;;;;0.10;0.10;;;;;;;;;;4999423;28;20133;-79
2023/12/14 03:54:34;;;;;;;0.10;0.10;;;;;;;;;;5006150;28;20464;-78
2023/12/14 03:57:00;;;;;;;0.10;0.10;;;;;;;;;;4989645;28;20055;-78
2023/12/14 03:59:27;;;;;;;0.10;0.10;;;;;;;;;;4993038;28;20113;-78
2023/12/14 04:01:53;;;;;;;0.10;0.10;;;;;;;;;;4985695;28;20054;-78
2023/12/14 04:04:20;;;;;;;0.10;0.10;;;;;;;;;;5006460;28;20512;-78
2023/12/14 04:06:46;;;;;;;0.75;0.75;;;;;;;;;;5002255;28;20078;-78
2023/12/14 04:09:12;;;;;;;0.10;0.10;;;;;;;;;;5011376;28;20610;-78
2023/12/14 04:11:39;;;;;;;0.10;0.10;;;;;;;;;;5009279;28;20860;-78
2023/12/14 04:14:05;;;;;;;0.20;0.20;;;;;;;;;;4992433;28;20424;-78
2023/12/14 04:16:32;;;;;;;0.57;0.57;;;;;;;;;;4987649;28;20062;-78
2023/12/14 04:18:59;;;;;;;0.25;0.25;;;;;;;;;;5007489;28;20133;-78
2023/12/14 04:21:25;;;;;;;0.73;0.73;;;;;;;;;;5008862;28;20066;-78
2023/12/14 04:23:52;;;;;;;0.15;0.15;;;;;;;;;;5008131;28;20125;-78
2023/12/14 04:26:18;;;;;;;0.10;0.10;;;;;;;;;;5006232;28;20082;-78
2023/12/14 04:28:46;;;;;;;0.40;0.40;;;;;;;;;;4992552;28;20065;-78
2023/12/14 04:31:12;;;;;;;0.30;0.30;;;;;;;;;;5008029;28;20051;-78
2023/12/14 04:33:39;;;;;;;0.10;0.10;;;;;;;;;;5008496;28;20145;-78
2023/12/14 04:36:06;;;;;;;0.15;0.15;;;;;;;;;;5009535;28;20137;-78
2023/12/14 04:41:05;;;;;;;0.10;0.10;;;;;;;;;;4934913;28;20056;-75
2023/12/14 04:43:32;;;;;;;0.10;0.10;;;;;;;;;;4949145;28;20182;-74
2023/12/14 04:45:58;;;;;;;0.10;0.10;;;;;;;;;;4932535;28;20164;-75
2023/12/14 04:48:25;;;;;;;0.10;0.10;;;;;;;;;;4947296;28;20526;-75
2023/12/14 04:50:51;;;;;;;0.20;0.20;;;;;;;;;;4950048;28;20051;-74
2023/12/14 04:53:18;;;;;;;0.28;0.25;;;;;;;;;;4950232;28;20059;-75
2023/12/14 04:55:44;;;;;;;0.10;0.10;;;;;;;;;;4946087;28;20056;-75
2023/12/14 04:58:11;;;;;;;0.30;0.30;;;;;;;;;;4936527;28;20064;-75
2023/12/14 05:00:38;;;;;;;0.10;0.10;;;;;;;;;;4949467;28;20059;-75
2023/12/14 05:03:05;;;;;;;0.10;0.10;;;;;;;;;;4949822;28;20078;-73
2023/12/14 05:05:32;;;;;;;0.10;0.10;;;;;;;;;;4950047;28;20067;-75
2023/12/14 05:07:58;;;;;;;0.10;0.10;;;;;;;;;;4947680;28;20412;-74
2023/12/14 05:10:25;;;;;;;0.10;0.10;;;;;;;;;;4951272;28;20140;-73
2023/12/14 05:12:51;;;;;;;0.20;0.20;;;;;;;;;;4949509;28;20665;-75
2023/12/14 05:15:24;;;;;;;0.10;0.10;;;;;;;;;;4944930;28;20055;-74
2023/12/14 05:17:50;;;;;;;0.10;0.10;;;;;;;;;;4948128;28;20083;-75
2023/12/14 05:20:17;;;;;;;0.10;0.10;;;;;;;;;;4950317;28;20052;-75
2023/12/14 05:22:43;;;;;;;0.20;0.20;;;;;;;;;;4947161;28;20056;-74
2023/12/14 05:25:10;;;;;;;2.75;1.45;;;;;;;;;;4948469;28;20059;-73
2023/12/14 05:27:36;;;;;;;0.10;0.10;;;;;;;;;;4950376;28;20127;-75
2023/12/14 05:30:03;;;;;;;0.10;0.10;;;;;;;;;;4948745;28;20175;-76
2023/12/14 05:32:30;;;;;;;0.10;0.10;;;;;;;;;;4950430;28;20047;-75
2023/12/14 05:34:56;;;;;;;0.10;0.10;;;;;;;;;;4947915;28;20542;-73
2023/12/14 05:37:23;;;;;;;0.10;0.10;;;;;;;;;;4948884;28;20052;-75
2023/12/14 05:39:49;;;;;;;0.10;0.10;;;;;;;;;;4935270;28;20112;-75
2023/12/14 05:42:16;;;;;;;0.13;0.13;;;;;;;;;;4928721;29;21274;-73
2023/12/14 05:44:44;;;;;;;0.30;0.30;;;;;;;;;;4925367;28;20529;-73
2023/12/14 05:47:11;;;;;;;0.00;0.00;;;;;;;;;;4924802;28;20144;-73
2023/12/14 05:49:40;;;;;;;0.10;0.10;;;;;;;;;;4930927;28;20060;-75
2023/12/14 05:52:07;;;;;;;0.98;0.85;;;;;;;;;;4923275;29;20056;-75
2023/12/14 05:54:35;;;;;;;0.10;0.10;;;;;;;;;;4929743;28;20067;-74
2023/12/14 05:57:01;;;;;;;0.10;0.10;;;;;;;;;;4923060;28;20131;-73
2023/12/14 05:59:28;;;;;;;0.43;0.43;;;;;;;;;;4925582;28;20087;-75
2023/12/14 06:01:57;;;;;;;0.10;0.10;;;;;;;;;;4928549;28;20151;-75
2023/12/14 06:04:25;;;;;;;0.10;0.10;;;;;;;;;;4920194;28;20051;-73
2023/12/14 06:06:51;;;;;;;0.35;0.35;;;;;;;;;;4929626;28;20057;-73
2023/12/14 06:09:21;;;;;;;0.10;0.10;;;;;;;;;;4919718;29;20052;-75
2023/12/14 06:11:48;;;;;;;0.10;0.10;;;;;;;;;;4930077;28;20523;-74
2023/12/14 06:14:14;;;;;;;0.10;0.10;;;;;;;;;;4928359;28;20316;-75
2023/12/14 06:16:40;;;;;;;0.10;0.10;;;;;;;;;;4928023;28;20590;-74
2023/12/14 06:19:07;;;;;;;0.20;0.20;;;;;;;;;;4923172;28;20052;-75
2023/12/14 06:21:33;;;;;;;0.10;0.10;;;;;;;;;;4934505;28;20110;-75
2023/12/14 06:24:00;;;;;;;0.47;0.47;;;;;;;;;;4928534;28;20052;-74
2023/12/14 06:26:26;;;;;;;0.10;0.10;;;;;;;;;;4930294;28;20063;-75
2023/12/14 06:28:52;;;;;;;0.10;0.10;;;;;;;;;;4929304;28;20048;-76
2023/12/14 06:31:22;;;;;;;0.10;0.10;;;;;;;;;;4924543;28;20056;-75
2023/12/14 06:33:48;;;;;;;0.10;0.10;;;;;;;;;;4929804;28;20075;-75
2023/12/14 06:36:18;;;;;;;0.10;0.10;;;;;;;;;;4925258;28;20056;-75
2023/12/14 06:38:44;;;;;;;0.30;0.30;;;;;;;;;;4931885;28;20119;-75
2023/12/14 06:41:21;;;;;;;0.10;0.10;;;;;;;;;;4929978;28;20060;-75
2023/12/14 06:43:47;;;;;;;0.10;0.10;;;;;;;;;;4927131;28;20053;-75
2023/12/14 06:46:14;;;;;;;1.40;1.30;;;;;;;;;;4929259;29;20067;-74
2023/12/14 06:48:40;;;;;;;0.10;0.10;;;;;;;;;;4929580;28;20143;-73
2023/12/14 06:51:07;;;;;;;0.10;0.10;;;;;;;;;;4929921;28;20071;-75
2023/12/14 06:53:34;;;;;;;0.10;0.10;;;;;;;;;;4929088;28;20562;-75
2023/12/14 06:56:00;;;;;;;0.10;0.10;;;;;;;;;;4929764;28;20056;-74
2023/12/14 06:58:27;;;;;;;0.10;0.10;;;;;;;;;;4924947;28;20063;-76
2023/12/14 07:00:53;;;;;;;0.10;0.10;;;;;;;;;;4926009;28;20087;-75
2023/12/14 07:03:20;;;;;;;0.10;0.10;;;;;;;;;;4923702;28;20123;-75
2023/12/14 07:05:46;;;;;;;0.15;0.15;;;;;;;;;;4923621;28;20065;-74
2023/12/14 07:08:13;;;;;;;0.10;0.10;;;;;;;;;;4928318;28;20052;-75
2023/12/14 07:10:41;;;;;;;0.28;0.28;;;;;;;;;;4929818;28;20055;-74
2023/12/14 07:13:08;;;;;;;0.10;0.10;;;;;;;;;;4929589;28;21022;-74
2023/12/14 07:15:34;;;;;;;0.10;0.10;;;;;;;;;;4928921;28;20052;-75
2023/12/14 07:18:01;;;;;;;0.10;0.10;;;;;;;;;;4923866;28;20064;-72
2023/12/14 07:20:27;;;;;;;0.10;0.10;;;;;;;;;;4908499;29;20056;-75
2023/12/14 07:22:53;;;;;;;0.32;0.32;;;;;;;;;;4926512;28;20056;-74
2023/12/14 07:25:20;;;;;;;0.10;0.10;;;;;;;;;;4927609;29;20060;-73
2023/12/14 07:27:46;;;;;;;0.10;0.10;;;;;;;;;;4925501;28;20102;-75
2023/12/14 07:30:13;;;;;;;0.10;0.10;;;;;;;;;;4928593;28;20501;-74
2023/12/14 07:32:39;;;;;;;0.10;0.10;;;;;;;;;;4923355;29;20060;-75
2023/12/14 07:35:06;;;;;;;0.10;0.10;;;;;;;;;;4918295;29;20113;-75
2023/12/14 07:37:32;;;;;;;0.50;0.50;;;;;;;;;;4923988;28;20205;-78
2023/12/14 07:39:59;;;;;;;0.10;0.10;;;;;;;;;;4936300;28;20111;-72
2023/12/14 07:42:25;;;;;;;0.10;0.10;;;;;;;;;;4939169;28;20059;-73
2023/12/14 07:44:52;;;;;;;0.15;0.15;;;;;;;;;;4944393;28;20055;-73
2023/12/14 07:47:18;;;;;;;0.15;0.15;;;;;;;;;;4953358;28;20101;-71
2023/12/14 07:49:45;;;;;;;0.10;0.10;;;;;;;;;;4954670;28;20083;-74
2023/12/14 07:52:13;;;;;;;0.10;0.10;;;;;;;;;;4950419;28;20146;-73
2023/12/14 07:54:40;;;;;;;0.10;0.10;;;;;;;;;;4947303;28;20052;-73
2023/12/14 07:57:06;;;;;;;0.10;0.10;;;;;;;;;;4950924;28;20077;-74
2023/12/14 07:59:32;;;;;;;0.10;0.10;;;;;;;;;;4953104;28;20059;-73
2023/12/14 08:01:59;;;;;;;0.10;0.10;;;;;;;;;;4949370;28;20055;-72
2023/12/14 08:04:26;;;;;;;0.68;0.68;;;;;;;;;;4953242;28;20146;-74
2023/12/14 08:06:52;;;;;;;0.10;0.10;;;;;;;;;;4951494;28;20059;-71
2023/12/14 08:09:18;;;;;;;0.10;0.10;;;;;;;;;;4952028;28;20051;-72
2023/12/14 08:11:45;;;;;;;0.10;0.10;;;;;;;;;;4947086;28;20056;-74
2023/12/14 08:14:11;;;;;;;0.10;0.10;;;;;;;;;;4950928;28;20060;-73
2023/12/14 08:16:38;;;;;;;0.10;0.10;;;;;;;;;;4946845;28;20156;-74
2023/12/14 08:19:04;;;;;;;0.10;0.10;;;;;;;;;;4963979;28;20058;-72
2023/12/14 08:21:31;;;;;;;0.10;0.10;;;;;;;;;;4950053;28;20052;-73
2023/12/14 08:23:57;;;;;;;0.10;0.10;;;;;;;;;;4948401;28;20609;-72
2023/12/14 08:26:24;;;;;;;0.10;0.10;;;;;;;;;;4945624;28;20062;-72
2023/12/14 08:28:50;;;;;;;0.63;0.50;;;;;;;;;;4941692;28;20503;-74
2023/12/14 08:31:17;;;;;;;0.80;0.63;;;;;;;;;;4947974;28;20573;-73
2023/12/14 08:33:43;;;;;;;0.10;0.10;;;;;;;;;;4945001;28;20060;-74
2023/12/14 08:36:15;;;;;;;0.10;0.10;;;;;;;;;;4948545;28;20054;-73
2023/12/14 08:38:41;;;;;;;0.10;0.10;;;;;;;;;;4947943;28;20064;-74
2023/12/14 08:41:08;;;;;;;0.10;0.10;;;;;;;;;;4926577;28;20395;-74
2023/12/14 08:43:34;;;;;;;0.10;0.10;;;;;;;;;;4918671;28;20179;-72
2023/12/14 08:46:00;;;;;;;0.15;0.15;;;;;;;;;;4929523;28;20060;-73
2023/12/14 08:48:27;;;;;;;0.10;0.10;;;;;;;;;;4928588;28;20059;-74
2023/12/14 08:50:54;;;;;;;0.00;0.00;;;;;;;;;;4926630;28;20570;-73
2023/12/14 08:53:20;;;;;;;0.10;0.10;;;;;;;;;;4925884;28;20060;-73
2023/12/14 08:55:46;;;;;;;0.10;0.10;;;;;;;;;;4923096;28;20060;-74
2023/12/14 08:58:13;;;;;;;0.10;0.10;;;;;;;;;;4933954;28;20060;-72
2023/12/14 09:00:39;;;;;;;3.72;0.73;;;;;;;;;;4921225;28;20049;-72
2023/12/14 09:03:06;;;;;;;0.10;0.10;;;;;;;;;;4925710;28;20067;-74
2023/12/14 09:05:33;;;;;;;0.10;0.10;;;;;;;;;;4930349;28;20060;-73
2023/12/14 09:07:59;;;;;;;0.10;0.10;;;;;;;;;;4928679;28;20056;-72
2023/12/14 09:10:26;;;;;;;0.10;0.10;;;;;;;;;;4929892;28;20052;-73
2023/12/14 09:12:52;;;;;;;0.10;0.10;;;;;;;;;;4924458;28;20083;-73
2023/12/14 09:15:19;;;;;;;0.10;0.10;;;;;;;;;;4928547;28;20056;-73
2023/12/14 09:17:45;;;;;;;0.65;0.65;;;;;;;;;;4926046;28;20138;-73
2023/12/14 09:20:12;;;;;;;0.10;0.10;;;;;;;;;;4922884;28;20064;-72
2023/12/14 09:22:38;;;;;;;0.10;0.10;;;;;;;;;;4929201;28;20188;-73
2023/12/14 09:25:05;;;;;;;0.10;0.10;;;;;;;;;;4925438;28;21006;-72
2023/12/14 09:27:32;;;;;;;0.10;0.10;;;;;;;;;;4929767;28;20052;-74
2023/12/14 09:29:59;;;;;;;0.10;0.10;;;;;;;;;;4925523;28;20566;-73
2023/12/14 09:32:25;;;;;;;3.20;1.05;;;;;;;;;;4924504;28;20059;-72
2023/12/14 09:34:56;;;;;;;1.27;0.88;;;;;;;;;;4921570;28;20057;-73
2023/12/14 09:37:22;;;;;;;0.10;0.10;;;;;;;;;;4928583;28;20063;-74
2023/12/14 09:39:48;;;;;;;0.65;0.65;;;;;;;;;;4905163;28;20099;-73
2023/12/14 09:42:17;;;;;;;0.10;0.10;;;;;;;;;;4927893;28;20146;-73
2023/12/14 09:44:44;;;;;;;0.10;0.10;;;;;;;;;;4924743;28;20180;-72
2023/12/14 09:47:10;;;;;;;0.10;0.10;;;;;;;;;;4923037;28;20084;-71
2023/12/14 09:49:37;;;;;;;0.10;0.10;;;;;;;;;;4924661;28;20063;-73
2023/12/14 09:52:03;;;;;;;0.10;0.10;;;;;;;;;;4927310;28;20055;-74
2023/12/14 09:54:30;;;;;;;0.10;0.10;;;;;;;;;;4928782;28;20127;-72
2023/12/14 09:56:56;;;;;;;0.10;0.10;;;;;;;;;;4923146;28;20143;-72
2023/12/14 09:59:23;;;;;;;0.10;0.10;;;;;;;;;;4922695;28;20060;-73
2023/12/14 10:01:49;;;;;;;0.10;0.10;;;;;;;;;;4915281;28;20194;-71
2023/12/14 10:04:19;;;;;;;0.10;0.10;;;;;;;;;;4920424;28;20506;-73
2023/12/14 10:06:47;;;;;;;0.10;0.10;;;;;;;;;;4929443;28;20055;-73
2023/12/14 10:09:15;;;;;;;0.10;0.10;;;;;;;;;;4929238;28;20951;-72
2023/12/14 10:11:42;;;;;;;0.57;0.57;;;;;;;;;;4929142;28;20579;-73
2023/12/14 10:14:19;;;;;;;0.32;0.32;;;;;;;;;;4926297;28;20143;-73
2023/12/14 10:16:45;;;;;;;0.10;0.10;;;;;;;;;;4915953;28;20091;-73
2023/12/14 10:19:12;;;;;;;0.10;0.10;;;;;;;;;;4927757;28;20066;-74
2023/12/14 10:21:38;;;;;;;0.10;0.10;;;;;;;;;;4923569;28;20054;-74
2023/12/14 10:24:05;;;;;;;0.10;0.10;;;;;;;;;;4929585;28;20066;-72
2023/12/14 10:26:32;;;;;;;0.10;0.10;;;;;;;;;;4918377;28;20060;-73
2023/12/14 10:28:58;;;;;;;0.38;0.38;;;;;;;;;;4926357;28;20132;-73
2023/12/14 10:31:25;;;;;;;0.10;0.10;;;;;;;;;;4927902;28;20112;-73
2023/12/14 10:33:52;;;;;;;0.10;0.10;;;;;;;;;;4913926;28;20056;-72
2023/12/14 10:36:26;;;;;;;0.10;0.10;;;;;;;;;;4925963;28;20056;-73
2023/12/14 10:38:59;;;;;;;0.10;0.10;;;;;;;;;;4924119;28;20056;-73
2023/12/14 10:41:26;;;;;;;0.10;0.10;;;;;;;;;;4928148;28;20048;-73
2023/12/14 10:43:53;;;;;;;0.10;0.10;;;;;;;;;;4928552;28;20471;-74
2023/12/14 10:46:22;;;;;;;1.00;0.75;;;;;;;;;;4929193;28;20064;-74
2023/12/14 10:48:49;;;;;;;0.10;0.10;;;;;;;;;;4928109;28;20060;-73
2023/12/14 10:51:18;;;;;;;0.10;0.10;;;;;;;;;;4928318;28;20080;-74
2023/12/14 10:53:48;;;;;;;0.20;0.20;;;;;;;;;;4928947;28;20567;-73
2023/12/14 10:56:16;;;;;;;0.10;0.10;;;;;;;;;;4926600;28;20595;-72
2023/12/14 10:58:47;;;;;;;0.10;0.10;;;;;;;;;;4922268;28;20713;-74
2023/12/14 11:01:14;;;;;;;;;;;;;;;;;;4921211;28;20553;-74
2023/12/14 11:03:40;;;;;;;0.10;0.10;;;;;;;;;;4922934;28;44109;-71
2023/12/14 11:06:31;;;;;;;0.10;0.10;;;;;;;;;;4921796;28;20119;-73
2023/12/14 11:08:58;;;;;;;0.10;0.10;;;;;;;;;;4913681;28;20048;-73
2023/12/14 11:11:28;;;;;;;0.10;0.10;;;;;;;;;;4912908;29;20052;-73
2023/12/14 11:13:54;;;;;;;0.10;0.10;;;;;;;;;;4917499;28;20606;-73
2023/12/14 11:16:21;;;;;;;0.10;0.10;;;;;;;;;;4927022;29;20056;-71
2023/12/14 11:18:47;;;;;;;0.10;0.10;;;;;;;;;;4920652;28;20094;-73
2023/12/14 11:21:19;;;;;;;0.10;0.10;;;;;;;;;;4918613;28;20061;-73
2023/12/14 11:23:45;;;;;;;;;;;;;;;;;;4923468;28;20063;-74
2023/12/14 11:26:20;;;;;;;0.10;0.10;;;;;;;;;;4922575;28;47783;-75
2023/12/14 11:28:48;;;;;;;0.10;0.10;;;;;;;;;;4929311;28;20594;-77
2023/12/14 11:31:14;;;;;;;0.10;0.10;;;;;;;;;;4916973;28;20064;-74
2023/12/14 11:33:40;;;;;;;0.17;0.17;;;;;;;;;;4931071;28;20517;-74
2023/12/14 11:36:12;;;;;;;0.10;0.10;;;;;;;;;;4933821;28;20139;-75
2023/12/14 11:38:40;;;;;;;0.55;0.55;;;;;;;;;;4927249;29;20143;-75
2023/12/14 11:41:07;;;;;;;0.10;0.10;;;;;;;;;;4923971;28;20048;-75
2023/12/14 11:43:40;;;;;;;0.10;0.10;;;;;;;;;;4927213;28;20056;-74
2023/12/14 11:46:07;;;;;;;0.10;0.10;;;;;;;;;;4926791;28;20063;-74
2023/12/14 11:48:33;;;;;;;0.10;0.10;;;;;;;;;;4926919;29;20139;-74
2023/12/14 11:51:00;;;;;;;0.10;0.10;;;;;;;;;;4926544;28;20056;-74
2023/12/14 11:53:27;;;;;;;0.10;0.10;;;;;;;;;;4926207;28;20139;-74
2023/12/14 11:55:53;;;;;;;0.10;0.10;;;;;;;;;;4926569;29;20165;-74
2023/12/14 11:58:20;;;;;;;0.10;0.10;;;;;;;;;;4926058;29;20060;-75
2023/12/14 12:00:47;;;;;;;0.10;0.10;;;;;;;;;;4926006;29;20062;-74
2023/12/14 12:03:17;;;;;;;0.10;0.10;;;;;;;;;;4926242;28;20105;-75
2023/12/14 12:05:45;;;;;;;0.10;0.10;;;;;;;;;;4927028;29;20139;-74
2023/12/14 12:08:12;;;;;;;0.10;0.10;;;;;;;;;;4925347;29;20056;-75
2023/12/14 12:10:40;;;;;;;0.10;0.10;;;;;;;;;;4925993;29;20060;-73
2023/12/14 12:13:07;;;;;;;0.10;0.10;;;;;;;;;;4925284;28;20063;-74
2023/12/14 12:15:35;;;;;;;0.10;0.10;;;;;;;;;;4917771;28;20487;-75
2023/12/14 12:18:06;;;;;;;0.10;0.10;;;;;;;;;;4910995;29;20055;-75
2023/12/14 12:20:32;;;;;;;0.10;0.10;;;;;;;;;;4934891;28;20506;-74
2023/12/14 12:22:59;;;;;;;0.10;0.10;;;;;;;;;;4923874;28;20061;-74
2023/12/14 12:25:27;;;;;;;0.20;0.20;;;;;;;;;;4922716;28;21113;-73
2023/12/14 12:27:55;;;;;;;0.45;0.45;;;;;;;;;;4926365;28;20056;-73
2023/12/14 12:30:22;;;;;;;0.10;0.10;;;;;;;;;;4929325;28;20112;-74
2023/12/14 12:32:50;;;;;;;0.57;0.57;;;;;;;;;;4921962;28;20060;-75
2023/12/14 12:35:18;;;;;;;0.10;0.10;;;;;;;;;;4923254;28;20540;-75
2023/12/14 12:37:44;;;;;;;0.35;0.35;;;;;;;;;;4924468;28;20057;-75
2023/12/14 12:40:11;;;;;;;0.10;0.10;;;;;;;;;;4927199;28;20139;-75
2023/12/14 12:42:37;;;;;;;0.10;0.10;;;;;;;;;;4945151;28;20059;-75
2023/12/14 12:45:04;;;;;;;0.10;0.10;;;;;;;;;;4942821;28;20060;-75
2023/12/14 12:47:30;;;;;;;0.10;0.10;;;;;;;;;;4944313;28;20534;-76
2023/12/14 12:49:57;;;;;;;0.10;0.10;;;;;;;;;;4947710;28;20083;-75
2023/12/14 12:52:24;;;;;;;0.10;0.10;;;;;;;;;;4942204;28;20078;-75
2023/12/14 12:54:50;;;;;;;0.10;0.10;;;;;;;;;;4951222;28;20514;-75
2023/12/14 12:57:17;;;;;;;0.10;0.10;;;;;;;;;;4948181;28;20115;-75
2023/12/14 12:59:44;;;;;;;0.10;0.10;;;;;;;;;;4948044;28;20083;-74
2023/12/14 13:02:10;;;;;;;0.10;0.10;;;;;;;;;;4943301;28;20068;-75
2023/12/14 13:04:37;;;;;;;0.10;0.10;;;;;;;;;;4946958;28;20051;-75
2023/12/14 13:07:04;;;;;;;0.10;0.10;;;;;;;;;;4943156;28;20089;-75
2023/12/14 13:09:30;;;;;;;0.08;0.08;;;;;;;;;;4949259;28;20066;-75
2023/12/14 13:11:57;;;;;;;0.10;0.10;;;;;;;;;;4947570;28;20619;-74
2023/12/14 13:14:23;;;;;;;0.10;0.10;;;;;;;;;;4948786;28;20052;-73
2023/12/14 13:16:49;;;;;;;0.10;0.10;;;;;;;;;;4949520;28;20067;-75
2023/12/14 13:19:16;;;;;;;0.15;0.15;;;;;;;;;;4943735;28;20163;-75
2023/12/14 13:21:42;;;;;;;0.10;0.10;;;;;;;;;;4930579;28;20056;-74
2023/12/14 13:24:09;;;;;;;0.10;0.10;;;;;;;;;;4946300;28;20519;-75
2023/12/14 13:26:36;;;;;;;0.10;0.10;;;;;;;;;;4949014;28;20063;-75
2023/12/14 13:29:03;;;;;;;0.00;0.00;;;;;;;;;;4946971;28;20054;-75
2023/12/14 13:31:29;;;;;;;0.20;0.20;;;;;;;;;;4946102;28;20059;-74
2023/12/14 13:33:55;;;;;;;0.30;0.30;;;;;;;;;;4944251;28;20048;-75
2023/12/14 13:36:23;;;;;;;0.10;0.10;;;;;;;;;;4950562;28;20972;-75
2023/12/14 13:38:49;;;;;;;0.10;0.10;;;;;;;;;;4942022;28;20174;-74
2023/12/14 13:41:16;;;;;;;0.30;0.30;;;;;;;;;;4925614;28;21617;-74
2023/12/14 13:43:43;;;;;;;0.10;0.10;;;;;;;;;;4924518;28;20059;-75
2023/12/14 13:46:10;;;;;;;0.10;0.10;;;;;;;;;;4928390;28;20051;-73
2023/12/14 13:48:47;;;;;;;0.10;0.10;;;;;;;;;;4900949;28;22515;-75
2023/12/14 13:51:14;;;;;;;0.10;0.10;;;;;;;;;;4927795;28;20440;-75
2023/12/14 13:53:41;;;;;;;0.10;0.10;;;;;;;;;;4931376;28;20091;-75
2023/12/14 13:56:07;;;;;;;0.00;0.00;;;;;;;;;;4929267;28;20056;-74
2023/12/14 13:58:37;;;;;;;0.10;0.10;;;;;;;;;;4929447;29;20056;-73
2023/12/14 14:01:05;;;;;;;0.10;0.10;;;;;;;;;;4923457;28;20051;-74
2023/12/14 14:03:32;;;;;;;0.10;0.10;;;;;;;;;;4936098;28;20067;-74
2023/12/14 14:05:58;;;;;;;0.10;0.10;;;;;;;;;;4919594;28;20056;-74
2023/12/14 14:08:25;;;;;;;0.10;0.10;;;;;;;;;;4931104;28;20526;-73
2023/12/14 14:10:51;;;;;;;0.10;0.10;;;;;;;;;;4917628;28;20146;-73
2023/12/14 14:13:18;;;;;;;0.28;0.28;;;;;;;;;;4931167;28;20075;-74
2023/12/14 14:15:44;;;;;;;0.28;0.28;;;;;;;;;;4935934;28;20056;-74
2023/12/14 14:18:11;;;;;;;0.10;0.10;;;;;;;;;;4927201;28;20055;-74
2023/12/14 14:20:37;;;;;;;0.30;0.30;;;;;;;;;;4918589;28;20057;-74
2023/12/14 14:23:04;;;;;;;0.10;0.10;;;;;;;;;;4932707;28;20099;-73
2023/12/14 14:25:31;;;;;;;0.10;0.10;;;;;;;;;;4927658;29;20138;-74
2023/12/14 14:27:58;;;;;;;0.10;0.10;;;;;;;;;;4921466;29;20059;-74
2023/12/14 14:30:25;;;;;;;0.10;0.10;;;;;;;;;;4928060;28;20060;-74
2023/12/14 14:32:52;;;;;;;0.20;0.20;;;;;;;;;;4932794;28;20051;-73
2023/12/14 14:35:19;;;;;;;0.10;0.10;;;;;;;;;;4932381;28;20056;-74
2023/12/14 14:37:45;;;;;;;0.10;0.10;;;;;;;;;;4932187;28;20056;-74
2023/12/14 14:40:16;;;;;;;0.10;0.10;;;;;;;;;;4934538;28;20503;-73
2023/12/14 14:42:43;;;;;;;0.10;0.10;;;;;;;;;;4929870;28;20144;-73
2023/12/14 14:45:10;;;;;;;0.10;0.10;;;;;;;;;;4934936;28;20063;-74